createdAt,value
2022-09-23T00:00:32.152Z,968.95
2022-09-23T00:01:32.522Z,968.99
2022-09-23T00:02:32.813Z,968.99
2022-09-23T00:03:33.051Z,968.96
2022-09-23T00:04:33.371Z,968.99
2022-09-23T00:05:33.682Z,968.99
2022-09-23T00:06:34.038Z,968.98
2022-09-23T00:07:36.021Z,968.96
2022-09-23T00:08:34.567Z,968.94
2022-09-23T00:09:34.889Z,968.97
2022-09-23T00:10:35.202Z,968.98
2022-09-23T00:11:35.562Z,968.93
2022-09-23T00:12:35.766Z,968.94
2022-09-23T00:13:36.083Z,968.96
2022-09-23T00:14:36.402Z,968.94
2022-09-23T00:15:36.691Z,968.96
2022-09-23T00:16:37.094Z,968.94
2022-09-23T00:17:37.298Z,968.94
2022-09-23T00:18:38.392Z,968.97
2022-09-23T00:19:37.905Z,968.97
2022-09-23T00:20:38.264Z,968.92
2022-09-23T00:21:38.452Z,968.93
2022-09-23T00:22:38.810Z,968.92
2022-09-23T00:23:39.009Z,968.94
2022-09-23T00:24:39.357Z,968.97
2022-09-23T00:25:39.675Z,968.95
2022-09-23T00:26:39.990Z,968.99
2022-09-23T00:27:40.318Z,968.99
2022-09-23T00:28:40.643Z,968.98
2022-09-23T00:29:40.880Z,968.98
2022-09-23T00:30:41.213Z,968.94
2022-09-23T00:31:43.251Z,968.97
2022-09-23T00:32:41.650Z,968.95
2022-09-23T00:33:41.954Z,968.95
2022-09-23T00:34:42.293Z,968.94
2022-09-23T00:35:42.500Z,969.00
2022-09-23T00:36:42.830Z,969.03
2022-09-23T00:37:43.159Z,969.05
2022-09-23T00:38:43.492Z,968.97
2022-09-23T00:39:43.877Z,969.02
2022-09-23T00:40:44.133Z,969.02
2022-09-23T00:41:44.343Z,969.01
2022-09-23T00:42:48.502Z,969.02
2022-09-23T00:43:44.995Z,969.01
2022-09-23T00:44:45.360Z,968.97
2022-09-23T00:45:45.631Z,968.94
2022-09-23T00:46:45.825Z,968.94
2022-09-23T00:47:46.155Z,968.98
2022-09-23T00:48:46.469Z,968.94
2022-09-23T00:49:46.826Z,968.90
2022-09-23T00:50:47.035Z,968.86
2022-09-23T00:51:47.364Z,968.87
2022-09-23T02:56:31.985Z,968.63
2022-09-23T02:57:32.237Z,968.57
2022-09-23T02:58:32.522Z,968.59
2022-09-23T02:59:32.809Z,968.54
2022-09-23T03:00:33.084Z,968.57
2022-09-23T03:01:33.416Z,968.56
2022-09-23T03:02:33.729Z,968.55
2022-09-23T03:03:33.998Z,968.57
2022-09-23T03:04:34.387Z,968.62
2022-09-23T03:05:34.682Z,968.59
2022-09-23T03:06:34.937Z,968.58
2022-09-23T03:07:35.170Z,968.63
2022-09-23T03:08:35.411Z,968.62
2022-09-23T03:09:35.659Z,968.57
2022-09-23T03:10:35.903Z,968.61
2022-09-23T03:11:36.125Z,968.59
2022-09-23T03:12:36.418Z,968.56
2022-09-23T03:13:36.647Z,968.55
2022-09-23T03:14:36.879Z,968.59
2022-09-23T03:15:37.204Z,968.60
2022-09-23T03:16:37.554Z,968.62
2022-09-23T03:17:37.836Z,968.52
2022-09-23T03:18:38.069Z,968.54
2022-09-23T03:19:38.306Z,968.53
2022-09-23T03:20:38.539Z,968.59
2022-09-23T03:21:38.768Z,968.58
2022-09-23T03:22:39.158Z,968.58
2022-09-23T03:23:39.377Z,968.60
2022-09-23T03:24:39.732Z,968.58
2022-09-23T03:25:39.947Z,968.54
2022-09-23T03:26:40.287Z,968.55
2022-09-23T03:27:40.534Z,968.52
2022-09-23T03:28:40.747Z,968.55
2022-09-23T03:29:41.081Z,968.51
2022-09-23T03:30:41.414Z,968.57
2022-09-23T03:31:42.862Z,968.51
2022-09-23T03:32:42.067Z,968.55
2022-09-23T03:33:42.305Z,968.53
2022-09-23T03:34:42.523Z,968.53
2022-09-23T03:35:42.853Z,968.52
2022-09-23T03:36:43.075Z,968.52
2022-09-23T03:37:43.433Z,968.51
2022-09-23T03:38:43.658Z,968.50
2022-09-23T03:39:43.991Z,968.48
2022-09-23T03:40:44.392Z,968.54
2022-09-23T03:41:44.622Z,968.54
2022-09-23T03:42:44.952Z,968.53
2022-09-23T03:43:45.291Z,968.58
2022-09-23T03:44:45.519Z,968.54
2022-09-23T03:45:45.957Z,968.55
2022-09-23T03:46:46.181Z,968.57
2022-09-23T03:47:46.405Z,968.56
2022-09-23T03:48:46.740Z,968.55
2022-09-23T03:49:47.072Z,968.55
2022-09-23T03:50:47.335Z,968.57
2022-09-23T03:51:47.549Z,968.62
2022-09-23T03:52:47.892Z,968.57
2022-09-23T03:53:48.232Z,968.57
2022-09-23T03:54:48.456Z,968.59
2022-09-23T03:55:48.697Z,968.60
2022-09-23T03:56:48.965Z,968.62
2022-09-23T03:57:49.196Z,968.60
2022-09-23T03:58:49.538Z,968.66
2022-09-23T03:59:49.745Z,968.64
2022-09-23T04:00:50.193Z,968.67
2022-09-23T04:01:50.473Z,968.65
2022-09-23T04:02:50.752Z,968.67
2022-09-23T04:03:50.991Z,968.64
2022-09-23T04:04:51.205Z,968.64
2022-09-23T04:05:51.546Z,968.65
2022-09-23T04:06:51.754Z,968.62
2022-09-23T04:07:52.088Z,968.60
2022-09-23T04:08:52.311Z,968.63
2022-09-23T04:09:52.678Z,968.61
2022-09-23T04:10:54.837Z,968.59
2022-09-23T04:11:53.123Z,968.62
2022-09-23T04:12:53.365Z,968.60
2022-09-23T04:13:53.583Z,968.61
2022-09-23T04:14:53.946Z,968.59
2022-09-23T04:15:54.305Z,968.63
2022-09-23T04:16:54.447Z,968.61
2022-09-23T04:17:54.691Z,968.58
2022-09-23T04:18:54.911Z,968.55
2022-09-23T04:19:55.141Z,968.58
2022-09-23T04:20:55.470Z,968.57
2022-09-23T04:21:55.775Z,968.55
2022-09-23T04:22:56.116Z,968.50
2022-09-23T04:23:56.337Z,968.51
2022-09-23T04:24:56.669Z,968.49
2022-09-23T04:25:56.893Z,968.45
2022-09-23T04:26:57.232Z,968.51
2022-09-23T04:27:57.484Z,968.48
2022-09-23T04:28:57.699Z,968.51
2022-09-23T04:29:58.031Z,968.51
2022-09-23T04:30:58.375Z,968.48
2022-09-23T04:31:58.861Z,968.50
2022-09-23T04:32:59.043Z,968.49
2022-09-23T04:33:59.261Z,968.51
2022-09-23T04:34:59.519Z,968.49
2022-09-23T04:35:59.747Z,968.47
2022-09-23T04:37:00.030Z,968.45
2022-09-23T04:38:00.249Z,968.46
2022-09-23T04:39:00.667Z,968.48
2022-09-23T04:40:00.891Z,968.45
2022-09-23T04:41:01.159Z,968.50
2022-09-23T04:42:01.377Z,968.52
2022-09-23T04:43:01.701Z,968.52
2022-09-23T04:44:02.041Z,968.49
2022-09-23T04:45:02.263Z,968.47
2022-09-23T04:46:02.637Z,968.47
2022-09-23T04:47:03.017Z,968.46
2022-09-23T04:48:03.163Z,968.45
2022-09-23T04:49:03.487Z,968.48
2022-09-23T04:50:03.826Z,968.53
2022-09-23T04:51:04.170Z,968.52
2022-09-23T04:52:04.429Z,968.49
2022-09-23T04:53:04.657Z,968.52
2022-09-23T04:54:04.869Z,968.50
2022-09-23T04:55:09.145Z,968.52
2022-09-23T04:56:06.519Z,968.55
2022-09-23T04:57:05.826Z,968.53
2022-09-23T04:58:06.088Z,968.54
2022-09-23T04:59:06.355Z,968.55
2022-09-23T05:00:06.529Z,968.56
2022-09-23T05:01:06.796Z,968.57
2022-09-23T05:02:07.151Z,968.54
2022-09-23T05:03:07.415Z,968.54
2022-09-23T05:04:07.633Z,968.59
2022-09-23T05:05:07.978Z,968.59
2022-09-23T05:06:08.225Z,968.58
2022-09-23T05:07:08.441Z,968.61
2022-09-23T05:08:08.706Z,968.61
2022-09-23T05:09:09.158Z,968.62
2022-09-23T05:10:09.274Z,968.60
2022-09-23T05:11:09.541Z,968.64
2022-09-23T05:12:09.774Z,968.64
2022-09-23T05:13:10.038Z,968.66
2022-09-23T05:14:10.265Z,968.64
2022-09-23T05:15:10.499Z,968.63
2022-09-23T05:16:10.794Z,968.63
2022-09-23T05:17:11.090Z,968.62
2022-09-23T05:18:11.360Z,968.62
2022-09-23T05:19:11.573Z,968.61
2022-09-23T05:20:11.817Z,968.61
2022-09-23T05:21:12.040Z,968.60
2022-09-23T05:22:12.296Z,968.61
2022-09-23T05:23:12.509Z,968.62
2022-09-23T05:24:12.768Z,968.57
2022-09-23T05:25:12.971Z,968.64
2022-09-23T05:26:13.325Z,968.65
2022-09-23T05:27:13.543Z,968.61
2022-09-23T05:28:13.771Z,968.65
2022-09-23T05:29:14.039Z,968.64
2022-09-23T05:30:14.267Z,968.59
2022-09-23T05:31:19.406Z,968.62
2022-09-23T05:32:15.807Z,968.58
2022-09-23T05:33:15.101Z,968.64
2022-09-23T05:34:15.370Z,968.61
2022-09-23T05:35:15.613Z,968.57
2022-09-23T05:36:15.836Z,968.57
2022-09-23T05:37:16.160Z,968.57
2022-09-23T05:38:16.404Z,968.58
2022-09-23T05:39:16.657Z,968.59
2022-09-23T05:40:16.977Z,968.59
2022-09-23T05:41:17.167Z,968.65
2022-09-23T05:42:17.504Z,968.61
2022-09-23T05:43:17.820Z,968.62
2022-09-23T05:44:18.214Z,968.64
2022-09-23T05:45:18.477Z,968.67
2022-09-23T05:46:18.754Z,968.62
2022-09-23T05:47:19.000Z,968.65
2022-09-23T05:48:19.222Z,968.65
2022-09-23T05:49:19.460Z,968.67
2022-09-23T05:50:19.709Z,968.68
2022-09-23T05:51:19.960Z,968.68
2022-09-23T05:52:20.190Z,968.71
2022-09-23T05:53:20.423Z,968.71
2022-09-23T05:54:20.757Z,968.68
2022-09-23T05:55:21.135Z,968.73
2022-09-23T05:56:21.379Z,968.68
2022-09-23T05:57:21.637Z,968.72
2022-09-23T05:58:21.861Z,968.70
2022-09-23T05:59:22.099Z,968.72
2022-09-23T06:00:22.346Z,968.75
2022-09-23T06:01:22.660Z,968.77
2022-09-23T06:02:22.931Z,968.74
2022-09-23T06:03:23.083Z,968.77
2022-09-23T06:04:23.364Z,968.79
2022-09-23T06:05:23.632Z,968.77
2022-09-23T06:06:23.855Z,968.74
2022-09-23T06:07:24.208Z,968.77
2022-09-23T06:08:24.433Z,968.77
2022-09-23T06:09:24.771Z,968.78
2022-09-23T06:10:25.099Z,968.78
2022-09-23T06:11:25.344Z,968.79
2022-09-23T06:12:25.562Z,968.79
2022-09-23T06:13:25.801Z,968.81
2022-09-23T06:14:26.024Z,968.82
2022-09-23T06:15:26.385Z,968.79
2022-09-23T06:16:26.682Z,968.78
2022-09-23T06:17:26.852Z,968.75
2022-09-23T06:18:27.084Z,968.74
2022-09-23T06:19:27.345Z,968.77
2022-09-23T06:20:27.656Z,968.78
2022-09-23T06:21:27.819Z,968.76
2022-09-23T06:22:28.043Z,968.75
2022-09-23T06:23:28.378Z,968.77
2022-09-23T06:24:31.397Z,968.75
2022-09-23T06:25:28.883Z,968.78
2022-09-23T06:26:29.106Z,968.77
2022-09-23T06:27:29.459Z,968.76
2022-09-23T06:28:29.673Z,968.78
2022-09-23T06:29:30.031Z,968.79
2022-09-23T06:30:30.305Z,968.81
2022-09-23T06:31:30.621Z,968.81
2022-09-23T06:32:30.841Z,968.79
2022-09-23T06:33:36.552Z,968.81
2022-09-23T06:34:43.236Z,968.83
2022-09-23T06:35:32.700Z,968.85
2022-09-23T06:36:41.965Z,968.85
2022-09-23T06:37:33.353Z,968.81
2022-09-23T06:38:32.642Z,968.91
2022-09-23T06:39:32.882Z,968.90
2022-09-23T06:40:33.144Z,968.90
2022-09-23T06:41:33.419Z,968.94
2022-09-23T06:42:33.671Z,968.95
2022-09-23T06:43:33.926Z,968.92
2022-09-23T06:44:34.212Z,968.90
2022-09-23T06:45:34.431Z,968.91
2022-09-23T06:46:34.689Z,968.93
2022-09-23T06:47:34.963Z,968.88
2022-09-23T06:48:35.247Z,968.92
2022-09-23T06:49:35.529Z,968.90
2022-09-23T06:50:35.752Z,968.86
2022-09-23T06:51:35.970Z,968.88
2022-09-23T06:52:36.244Z,968.90
2022-09-23T06:53:36.470Z,968.89
2022-09-23T06:54:36.709Z,968.85
2022-09-23T06:55:36.932Z,968.83
2022-09-23T06:56:39.496Z,968.86
2022-09-23T06:57:37.520Z,968.87
2022-09-23T06:58:37.778Z,968.89
2022-09-23T06:59:37.995Z,968.89
2022-09-23T07:00:38.250Z,968.95
2022-09-23T07:01:38.652Z,968.90
2022-09-23T07:02:38.848Z,968.92
2022-09-23T07:03:39.029Z,968.90
2022-09-23T07:04:39.271Z,968.94
2022-09-23T07:05:39.501Z,968.97
2022-09-23T07:06:39.713Z,968.95
2022-09-23T07:07:40.056Z,968.94
2022-09-23T07:08:40.390Z,968.94
2022-09-23T07:09:40.755Z,968.94
2022-09-23T07:10:40.983Z,968.97
2022-09-23T07:11:41.322Z,968.94
2022-09-23T07:12:41.649Z,968.93
2022-09-23T07:13:41.864Z,968.97
2022-09-23T07:14:42.228Z,968.98
2022-09-23T07:15:42.518Z,969.00
2022-09-23T07:16:42.781Z,968.96
2022-09-23T07:17:42.994Z,968.92
2022-09-23T07:18:43.305Z,968.92
2022-09-23T07:19:43.624Z,968.92
2022-09-23T07:20:43.952Z,968.90
2022-09-23T07:21:44.321Z,968.90
2022-09-23T07:22:44.540Z,968.88
2022-09-23T07:23:44.894Z,968.92
2022-09-23T07:24:45.122Z,968.90
2022-09-23T07:25:45.339Z,968.92
2022-09-23T07:26:45.905Z,968.90
2022-09-23T07:27:45.902Z,968.89
2022-09-23T07:28:46.226Z,968.94
2022-09-23T07:29:48.878Z,968.94
2022-09-23T07:30:58.331Z,968.97
2022-09-23T07:31:48.232Z,969.01
2022-09-23T07:32:49.149Z,969.03
2022-09-23T07:33:47.844Z,968.99
2022-09-23T07:34:48.194Z,969.01
2022-09-23T07:35:48.406Z,969.00
2022-09-23T07:36:48.730Z,969.01
2022-09-23T07:37:49.068Z,969.03
2022-09-23T07:38:49.392Z,969.02
2022-09-23T07:39:49.741Z,969.06
2022-09-23T07:40:49.970Z,969.11
2022-09-23T07:41:50.208Z,969.09
2022-09-23T07:42:50.531Z,969.12
2022-09-23T07:43:50.849Z,969.11
2022-09-23T07:44:51.208Z,969.12
2022-09-23T07:45:51.427Z,969.13
2022-09-23T07:46:51.792Z,969.09
2022-09-23T07:47:52.034Z,969.09
2022-09-23T07:48:52.402Z,969.12
2022-09-23T07:49:52.620Z,969.11
2022-09-23T07:50:52.934Z,969.11
2022-09-23T07:51:53.310Z,969.13
2022-09-23T07:52:53.526Z,969.08
2022-09-23T07:53:53.852Z,969.07
2022-09-23T07:54:54.183Z,969.05
2022-09-23T07:55:54.502Z,969.02
2022-09-23T07:56:54.842Z,969.00
2022-09-23T07:57:55.044Z,969.05
2022-09-23T07:58:55.374Z,969.04
2022-09-23T07:59:55.687Z,968.99
2022-09-23T08:00:56.006Z,969.01
2022-09-23T08:01:56.399Z,969.01
2022-09-23T08:02:56.668Z,969.03
2022-09-23T08:03:56.901Z,969.00
2022-09-23T08:04:57.221Z,969.01
2022-09-23T08:05:57.540Z,969.00
2022-09-23T08:06:57.784Z,968.98
2022-09-23T08:07:58.021Z,968.97
2022-09-23T08:08:58.324Z,969.00
2022-09-23T08:09:58.627Z,968.98
2022-09-23T08:10:58.917Z,968.99
2022-09-23T08:11:59.276Z,968.98
2022-09-23T08:12:59.488Z,969.00
2022-09-23T08:13:59.923Z,968.99
2022-09-23T08:15:00.020Z,968.98
2022-09-23T08:16:00.387Z,968.96
2022-09-23T08:17:00.604Z,968.97
2022-09-23T08:18:00.951Z,969.02
2022-09-23T08:19:01.450Z,969.01
2022-09-23T08:20:01.554Z,969.01
2022-09-23T08:21:01.856Z,969.00
2022-09-23T08:22:02.149Z,969.01
2022-09-23T08:23:02.473Z,968.99
2022-09-23T08:24:02.844Z,969.01
2022-09-23T08:25:03.101Z,969.03
2022-09-23T08:26:03.441Z,968.98
2022-09-23T08:27:03.784Z,968.96
2022-09-23T08:28:03.960Z,968.94
2022-09-23T08:29:04.249Z,968.93
2022-09-23T08:30:04.586Z,968.97
2022-09-23T08:31:04.926Z,968.94
2022-09-23T08:32:05.210Z,968.93
2022-09-23T08:33:05.401Z,968.95
2022-09-23T08:34:05.858Z,968.92
2022-09-23T08:35:06.102Z,968.90
2022-09-23T08:36:06.304Z,968.85
2022-09-23T08:37:06.643Z,968.84
2022-09-23T08:38:06.948Z,968.77
2022-09-23T08:39:07.265Z,968.78
2022-09-23T08:40:07.671Z,968.75
2022-09-23T08:41:07.888Z,968.78
2022-09-23T08:42:08.236Z,968.75
2022-09-23T08:43:08.424Z,968.78
2022-09-23T08:44:08.805Z,968.77
2022-09-23T08:45:09.066Z,968.79
2022-09-23T08:46:09.424Z,968.75
2022-09-23T08:47:09.693Z,968.77
2022-09-23T08:48:13.018Z,968.80
2022-09-23T08:49:10.247Z,968.87
2022-09-23T08:50:10.453Z,968.89
2022-09-23T08:51:10.758Z,968.89
2022-09-23T08:52:11.085Z,968.85
2022-09-23T08:53:11.270Z,968.86
2022-09-23T08:54:11.563Z,968.88
2022-09-23T08:55:11.867Z,968.85
2022-09-23T08:56:12.164Z,968.88
2022-09-23T08:57:12.493Z,968.87
2022-09-23T08:58:24.872Z,968.93
2022-09-23T08:59:14.043Z,968.90
2022-09-23T09:00:13.308Z,968.83
2022-09-23T09:01:13.642Z,968.85
2022-09-23T09:02:13.908Z,968.87
2022-09-23T09:03:14.154Z,968.87
2022-09-23T09:04:14.361Z,968.86
2022-09-23T09:05:14.655Z,968.82
2022-09-23T09:06:15.018Z,968.81
2022-09-23T09:08:16.497Z,968.81
2022-09-23T09:09:15.728Z,968.83
2022-09-23T09:10:16.058Z,968.78
2022-09-23T09:11:16.365Z,968.83
2022-09-23T09:12:16.644Z,968.82
2022-09-23T09:13:16.951Z,968.82
2022-09-23T09:14:17.261Z,968.78
2022-09-23T09:15:17.600Z,968.77
2022-09-23T09:16:27.272Z,968.74
2022-09-23T09:17:19.295Z,968.73
2022-09-23T09:18:18.475Z,968.71
2022-09-23T09:19:18.758Z,968.65
2022-09-23T09:20:19.063Z,968.68
2022-09-23T09:21:19.396Z,968.70
2022-09-23T09:22:19.709Z,968.65
2022-09-23T09:23:20.013Z,968.61
2022-09-23T09:24:20.338Z,968.61
2022-09-23T09:25:20.662Z,968.61
2022-09-23T09:26:20.980Z,968.60
2022-09-23T09:27:21.289Z,968.59
2022-09-23T09:28:21.561Z,968.59
2022-09-23T09:29:34.941Z,968.59
2022-09-23T09:30:23.177Z,968.61
2022-09-23T09:31:22.532Z,968.58
2022-09-23T09:32:22.735Z,968.60
2022-09-23T09:33:23.019Z,968.59
2022-09-23T09:34:23.368Z,968.54
2022-09-23T09:35:23.541Z,968.55
2022-09-23T09:36:23.828Z,968.54
2022-09-23T09:37:24.148Z,968.50
2022-09-23T09:38:24.451Z,968.49
2022-09-23T09:39:26.311Z,968.49
2022-09-23T09:40:25.080Z,968.46
2022-09-23T09:41:25.307Z,968.42
2022-09-23T09:42:25.657Z,968.43
2022-09-23T09:43:25.866Z,968.39
2022-09-23T09:44:26.182Z,968.41
2022-09-23T09:45:26.528Z,968.42
2022-09-23T09:46:26.767Z,968.39
2022-09-23T09:47:26.988Z,968.39
2022-09-23T09:48:27.285Z,968.37
2022-09-23T09:49:27.599Z,968.31
2022-09-23T09:50:27.953Z,968.34
2022-09-23T09:51:28.142Z,968.31
2022-09-23T09:52:28.459Z,968.29
2022-09-23T09:53:28.710Z,968.26
2022-09-23T09:54:29.025Z,968.29
2022-09-23T09:55:29.378Z,968.31
2022-09-23T09:56:29.569Z,968.25
2022-09-23T09:57:33.526Z,968.25
2022-09-23T09:58:31.193Z,968.27
2022-09-23T09:59:30.429Z,968.26
2022-09-23T10:00:30.721Z,968.22
2022-09-23T10:01:31.077Z,968.20
2022-09-23T10:02:31.339Z,968.21
2022-09-23T10:03:31.692Z,968.19
2022-09-23T10:04:31.898Z,968.17
2022-09-23T10:05:32.218Z,968.15
2022-09-23T10:06:32.561Z,968.13
2022-09-23T10:07:32.790Z,968.17
2022-09-23T10:08:33.133Z,968.14
2022-09-23T10:09:33.465Z,968.13
2022-09-23T10:10:34.022Z,968.10
2022-09-23T10:11:33.991Z,968.16
2022-09-23T10:12:34.272Z,968.10
2022-09-23T10:13:34.600Z,968.12
2022-09-23T10:14:34.937Z,968.12
2022-09-23T10:15:35.250Z,968.12
2022-09-23T10:16:35.592Z,968.13
2022-09-23T10:17:35.824Z,968.13
2022-09-23T10:18:36.090Z,968.12
2022-09-23T10:19:36.299Z,968.09
2022-09-23T10:20:36.636Z,968.06
2022-09-23T10:21:36.944Z,968.08
2022-09-23T10:22:37.259Z,968.09
2022-09-23T10:23:37.567Z,968.07
2022-09-23T10:24:37.881Z,968.08
2022-09-23T10:25:38.215Z,968.08
2022-09-23T10:26:38.519Z,968.05
2022-09-23T10:27:38.832Z,968.03
2022-09-23T10:28:39.122Z,968.03
2022-09-23T10:29:39.430Z,967.99
2022-09-23T10:30:39.792Z,967.98
2022-09-23T10:31:39.993Z,967.96
2022-09-23T10:32:40.301Z,967.95
2022-09-23T10:33:40.619Z,968.00
2022-09-23T10:34:40.918Z,967.97
2022-09-23T10:35:41.253Z,967.96
2022-09-23T10:36:44.530Z,967.99
2022-09-23T10:37:41.835Z,967.96
2022-09-23T10:38:42.135Z,967.95
2022-09-23T10:39:42.452Z,967.99
2022-09-23T10:40:42.945Z,967.90
2022-09-23T10:41:42.990Z,968.00
2022-09-23T10:42:43.308Z,967.98
2022-09-23T10:43:43.635Z,968.00
2022-09-23T10:44:43.940Z,968.00
2022-09-23T10:45:44.317Z,967.94
2022-09-23T10:46:44.575Z,967.94
2022-09-23T10:47:44.848Z,967.97
2022-09-23T10:48:45.202Z,967.99
2022-09-23T10:49:45.426Z,967.94
2022-09-23T10:50:45.774Z,967.93
2022-09-23T10:51:45.972Z,967.97
2022-09-23T10:52:46.287Z,967.95
2022-09-23T10:53:46.596Z,967.94
2022-09-23T10:54:46.940Z,967.92
2022-09-23T10:55:47.154Z,967.94
2022-09-23T10:56:47.468Z,967.91
2022-09-23T10:57:47.808Z,967.92
2022-09-23T10:58:48.142Z,967.91
2022-09-23T10:59:48.461Z,967.86
2022-09-23T11:00:48.770Z,967.86
2022-09-23T11:01:49.160Z,967.85
2022-09-23T11:02:49.421Z,967.86
2022-09-23T11:03:49.767Z,967.91
2022-09-23T11:04:50.096Z,967.87
2022-09-23T11:05:50.320Z,967.88
2022-09-23T11:06:50.643Z,967.87
2022-09-23T11:07:50.939Z,967.87
2022-09-23T11:08:51.247Z,967.88
2022-09-23T11:09:51.551Z,967.85
2022-09-23T11:10:51.890Z,967.85
2022-09-23T11:11:52.093Z,967.84
2022-09-23T11:12:52.385Z,967.78
2022-09-23T11:13:54.703Z,967.83
2022-09-23T11:14:52.933Z,967.76
2022-09-23T11:15:53.284Z,967.76
2022-09-23T11:16:53.682Z,967.81
2022-09-23T11:17:53.920Z,967.80
2022-09-23T11:18:54.226Z,967.75
2022-09-23T11:19:54.532Z,967.73
2022-09-23T11:20:54.833Z,967.71
2022-09-23T11:21:55.184Z,967.75
2022-09-23T11:22:55.386Z,967.77
2022-09-23T11:23:55.682Z,967.76
2022-09-23T11:24:55.986Z,967.72
2022-09-23T11:25:56.283Z,967.70
2022-09-23T11:26:56.633Z,967.71
2022-09-23T11:27:56.972Z,967.68
2022-09-23T11:28:57.271Z,967.73
2022-09-23T11:29:57.584Z,967.69
2022-09-23T11:30:57.979Z,967.72
2022-09-23T11:31:59.683Z,967.66
2022-09-23T11:32:58.599Z,967.68
2022-09-23T11:33:58.791Z,967.63
2022-09-23T11:34:59.104Z,967.65
2022-09-23T11:35:59.401Z,967.63
2022-09-23T11:36:59.730Z,967.66
2022-09-23T11:38:00.066Z,967.59
2022-09-23T11:39:00.372Z,967.56
2022-09-23T11:40:00.712Z,967.56
2022-09-23T11:41:00.984Z,967.46
2022-09-23T11:42:01.241Z,967.50
2022-09-23T11:43:01.539Z,967.50
2022-09-23T11:44:01.873Z,967.45
2022-09-23T11:45:02.163Z,967.40
2022-09-23T11:46:02.414Z,967.38
2022-09-23T11:47:02.613Z,967.26
2022-09-23T11:48:02.947Z,967.19
2022-09-23T11:49:03.259Z,967.11
2022-09-23T11:50:03.587Z,966.98
2022-09-23T11:51:03.910Z,966.95
2022-09-23T11:52:04.241Z,966.91
2022-09-23T11:53:04.558Z,966.83
2022-09-23T11:54:04.866Z,966.91
2022-09-23T11:55:13.750Z,966.93
2022-09-23T11:56:06.488Z,966.96
2022-09-23T11:57:05.717Z,966.99
2022-09-23T11:58:11.318Z,967.04
2022-09-23T11:59:07.634Z,967.01
2022-09-23T12:00:06.535Z,966.97
2022-09-23T12:01:06.826Z,966.96
2022-09-23T12:02:18.247Z,966.94
2022-09-23T12:03:08.483Z,966.87
2022-09-23T12:04:16.744Z,966.87
2022-09-23T12:05:09.114Z,966.77
2022-09-23T12:06:08.335Z,966.73
2022-09-23T12:07:08.532Z,966.71
2022-09-23T12:08:08.847Z,966.78
2022-09-23T12:09:09.161Z,966.76
2022-09-23T12:10:09.470Z,966.73
2022-09-23T12:11:09.803Z,966.66
2022-09-23T12:12:09.999Z,966.65
2022-09-23T12:13:10.340Z,966.60
2022-09-23T12:14:10.574Z,966.59
2022-09-23T12:15:10.873Z,966.58
2022-09-23T12:16:11.211Z,966.52
2022-09-23T12:17:11.409Z,966.54
2022-09-23T12:18:11.764Z,966.53
2022-09-23T12:19:11.946Z,966.58
2022-09-23T12:20:12.350Z,966.59
2022-09-23T12:21:27.463Z,966.57
2022-09-23T12:22:13.837Z,966.56
2022-09-23T12:23:13.150Z,966.51
2022-09-23T12:24:17.124Z,966.49
2022-09-23T12:25:14.651Z,966.50
2022-09-23T12:26:13.886Z,966.48
2022-09-23T12:27:14.175Z,966.45
2022-09-23T12:28:14.513Z,966.38
2022-09-23T12:29:14.825Z,966.38
2022-09-23T12:30:15.172Z,966.42
2022-09-23T12:31:15.412Z,966.38
2022-09-23T12:32:15.643Z,966.35
2022-09-23T12:33:15.946Z,966.32
2022-09-23T12:34:16.270Z,966.29
2022-09-23T12:35:16.610Z,966.28
2022-09-23T12:36:16.832Z,966.28
2022-09-23T12:37:17.141Z,966.31
2022-09-23T12:38:17.460Z,966.28
2022-09-23T12:39:17.791Z,966.28
2022-09-23T12:40:18.172Z,966.26
2022-09-23T12:41:18.361Z,966.21
2022-09-23T12:42:18.677Z,966.19
2022-09-23T12:43:19.004Z,966.21
2022-09-23T12:44:19.317Z,966.18
2022-09-23T12:45:19.673Z,966.05
2022-09-23T12:46:20.014Z,966.09
2022-09-23T12:47:20.285Z,966.10
2022-09-23T12:48:20.629Z,966.18
2022-09-23T12:49:20.812Z,966.12
2022-09-23T12:50:23.791Z,966.10
2022-09-23T12:51:21.389Z,966.19
2022-09-23T12:52:21.697Z,966.19
2022-09-23T12:53:22.047Z,966.18
2022-09-23T12:54:22.354Z,966.14
2022-09-23T12:55:22.669Z,966.15
2022-09-23T12:56:23.014Z,966.14
2022-09-23T12:57:23.311Z,966.17
2022-09-23T12:58:23.620Z,966.10
2022-09-23T12:59:23.969Z,966.10
2022-09-23T13:00:24.173Z,966.15
2022-09-23T13:01:24.636Z,966.12
2022-09-23T13:02:24.858Z,966.14
2022-09-23T13:03:24.963Z,966.07
2022-09-23T13:04:25.336Z,966.10
2022-09-23T13:05:25.519Z,966.04
2022-09-23T13:06:25.817Z,966.02
2022-09-23T13:07:26.126Z,966.01
2022-09-23T13:08:26.420Z,966.00
2022-09-23T13:09:26.754Z,966.02
2022-09-23T13:10:27.088Z,965.98
2022-09-23T13:11:27.277Z,965.99
2022-09-23T13:12:27.595Z,965.95
2022-09-23T13:13:27.904Z,965.99
2022-09-23T13:14:28.207Z,965.97
2022-09-23T13:15:28.577Z,965.95
2022-09-23T13:16:28.776Z,965.95
2022-09-23T13:17:28.987Z,965.91
2022-09-23T13:18:29.306Z,965.95
2022-09-23T13:19:29.599Z,965.89
2022-09-23T13:20:29.938Z,965.91
2022-09-23T13:21:30.249Z,965.95
2022-09-23T13:22:30.550Z,965.88
2022-09-23T13:23:51.891Z,965.85
2022-09-23T13:24:31.139Z,965.89
2022-09-23T13:25:31.356Z,965.86
2022-09-23T13:26:31.651Z,965.79
2022-09-23T13:27:31.983Z,965.83
2022-09-23T13:28:32.296Z,965.82
2022-09-23T13:29:32.591Z,965.83
2022-09-23T13:30:32.940Z,965.89
2022-09-23T13:31:33.285Z,965.89
2022-09-23T13:32:33.648Z,965.88
2022-09-23T13:33:33.846Z,965.84
2022-09-23T13:34:34.144Z,965.81
2022-09-23T13:35:34.478Z,965.83
2022-09-23T13:36:34.786Z,965.82
2022-09-23T13:37:35.101Z,965.77
2022-09-23T13:38:35.413Z,965.79
2022-09-23T13:39:35.768Z,965.72
2022-09-23T13:40:36.024Z,965.68
2022-09-23T13:41:36.229Z,965.71
2022-09-23T13:42:36.547Z,965.81
2022-09-23T13:43:40.907Z,965.78
2022-09-23T13:44:37.125Z,965.76
2022-09-23T13:45:37.532Z,965.82
2022-09-23T13:46:37.747Z,965.89
2022-09-23T13:47:38.045Z,965.91
2022-09-23T13:48:38.380Z,965.81
2022-09-23T13:49:38.689Z,965.91
2022-09-23T13:50:39.053Z,965.91
2022-09-23T13:51:39.264Z,965.91
2022-09-23T13:52:39.564Z,965.91
2022-09-23T13:53:39.935Z,965.85
2022-09-23T13:54:40.176Z,965.81
2022-09-23T13:55:40.490Z,965.80
2022-09-23T13:56:40.769Z,965.85
2022-09-23T13:57:41.089Z,965.90
2022-09-23T13:58:41.412Z,965.90
2022-09-23T13:59:41.738Z,965.93
2022-09-23T14:00:42.132Z,965.92
2022-09-23T14:01:42.404Z,965.90
2022-09-23T14:02:42.737Z,965.88
2022-09-23T14:03:42.960Z,965.87
2022-09-23T14:04:43.259Z,965.93
2022-09-23T14:05:43.578Z,965.91
2022-09-23T14:06:43.920Z,965.92
2022-09-23T14:07:44.100Z,965.97
2022-09-23T14:08:44.399Z,965.98
2022-09-23T14:09:44.707Z,965.91
2022-09-23T14:10:45.017Z,965.90
2022-09-23T14:11:45.361Z,965.90
2022-09-23T14:12:45.660Z,965.90
2022-09-23T14:13:45.968Z,965.92
2022-09-23T14:14:46.202Z,965.89
2022-09-23T14:15:46.486Z,965.88
2022-09-23T14:16:46.803Z,965.88
2022-09-23T14:17:47.029Z,965.87
2022-09-23T14:18:47.325Z,965.87
2022-09-23T14:19:47.630Z,965.88
2022-09-23T14:20:47.939Z,965.86
2022-09-23T14:21:48.267Z,965.86
2022-09-23T14:22:48.563Z,965.92
2022-09-23T14:23:48.844Z,965.91
2022-09-23T14:24:49.201Z,965.91
2022-09-23T14:25:49.356Z,965.96
2022-09-23T14:26:49.680Z,965.96
2022-09-23T14:27:49.869Z,966.01
2022-09-23T14:28:50.280Z,966.00
2022-09-23T14:29:50.444Z,965.96
2022-09-23T14:30:50.749Z,965.96
2022-09-23T14:31:51.178Z,966.06
2022-09-23T14:32:51.285Z,965.41
2022-09-23T14:33:51.569Z,965.38
2022-09-23T14:34:51.888Z,965.39
2022-09-23T14:35:52.209Z,965.40
2022-09-23T14:36:52.535Z,965.34